createdAt,value
2022-12-26T00:02:26.363Z,-5.20
2022-12-26T00:04:56.586Z,-5.20
2022-12-26T00:07:27.316Z,-5.20
2022-12-26T00:09:57.368Z,-5.10
2022-12-26T00:12:29.107Z,-5.10
2022-12-26T00:14:59.153Z,-5.10
2022-12-26T00:17:29.267Z,-5.10
2022-12-26T00:19:59.515Z,-5.00
2022-12-26T00:22:29.775Z,-4.90
2022-12-26T00:24:59.880Z,-4.90
2022-12-26T00:27:31.956Z,-4.90
2022-12-26T00:30:02.095Z,-4.90
2022-12-26T00:32:32.169Z,-4.80
2022-12-26T00:35:02.204Z,-4.80
2022-12-26T00:37:32.961Z,-4.80
2022-12-26T00:40:03.001Z,-4.80
2022-12-26T00:42:34.608Z,-4.80
2022-12-26T00:45:04.846Z,-4.90
2022-12-26T00:47:35.128Z,-4.80
2022-12-26T00:50:14.073Z,-4.80
2022-12-26T00:52:45.893Z,-4.80
2022-12-26T00:55:16.058Z,-4.80
2022-12-26T00:57:47.912Z,-4.90
2022-12-26T01:00:19.629Z,-4.80
2022-12-26T01:02:50.125Z,-4.80
2022-12-26T01:05:20.800Z,-4.80
2022-12-26T01:08:20.225Z,-4.80
2022-12-26T01:10:44.053Z,-4.80
2022-12-26T01:13:15.840Z,-4.80
2022-12-26T01:15:51.744Z,-4.80
2022-12-26T01:18:22.290Z,-4.80
2022-12-26T01:20:52.657Z,-4.80
2022-12-26T01:23:22.807Z,-4.80
2022-12-26T01:26:17.324Z,-4.80
2022-12-26T01:28:44.731Z,-4.80
2022-12-26T01:31:14.871Z,-4.80
2022-12-26T01:33:45.231Z,-4.80
2022-12-26T01:36:15.706Z,-4.80
2022-12-26T01:38:45.918Z,-4.90
2022-12-26T01:41:20.885Z,-4.80
2022-12-26T01:43:55.681Z,-4.80
2022-12-26T01:46:32.050Z,-4.80
2022-12-26T01:49:04.676Z,-4.80
2022-12-26T01:51:39.132Z,-4.80
2022-12-26T01:54:40.896Z,-4.80
2022-12-26T01:57:04.161Z,-4.70
2022-12-26T01:59:39.991Z,-4.70
2022-12-26T02:02:10.756Z,-4.70
2022-12-26T02:05:03.605Z,-4.70
2022-12-26T02:07:36.359Z,-4.70
2022-12-26T02:10:07.557Z,-4.80
2022-12-26T02:12:39.298Z,-4.80
2022-12-26T02:15:14.670Z,-4.80
2022-12-26T02:17:45.601Z,-4.80
2022-12-26T02:20:24.818Z,-4.80
2022-12-26T02:23:54.071Z,-4.90
2022-12-26T02:26:56.178Z,-4.90
2022-12-26T02:30:10.467Z,-4.90
2022-12-26T02:32:59.621Z,-4.90
2022-12-26T02:35:40.869Z,-4.90
2022-12-26T02:38:23.629Z,-5.00
2022-12-26T02:41:04.143Z,-5.00
2022-12-26T02:43:44.146Z,-5.00
2022-12-26T02:46:37.173Z,-5.00
2022-12-26T02:49:17.786Z,-5.00
2022-12-26T02:52:15.577Z,-5.00
2022-12-26T02:55:06.719Z,-5.00
2022-12-26T02:57:59.921Z,-4.90
2022-12-26T03:00:47.577Z,-4.90
2022-12-26T03:03:38.049Z,-4.90
2022-12-26T03:06:31.385Z,-5.00
2022-12-26T03:09:22.042Z,-5.00
2022-12-26T03:12:26.662Z,-5.00
2022-12-26T03:15:00.352Z,-5.00
2022-12-26T03:17:35.033Z,-5.00
2022-12-26T03:20:13.117Z,-5.00
2022-12-26T03:22:48.664Z,-5.00
2022-12-26T03:25:39.355Z,-5.00
2022-12-26T03:28:09.816Z,-5.00
2022-12-26T03:30:52.529Z,-5.00
2022-12-26T03:33:54.754Z,-5.00
2022-12-26T03:36:36.445Z,-5.00
2022-12-26T03:39:18.051Z,-5.00
2022-12-26T03:42:14.002Z,-5.00
2022-12-26T03:45:10.789Z,-5.00
2022-12-26T03:48:01.683Z,-5.10
2022-12-26T03:50:53.910Z,-5.10
2022-12-26T03:53:44.593Z,-5.10
2022-12-26T03:56:38.034Z,-5.20
2022-12-26T03:59:28.004Z,-5.20
2022-12-26T04:02:16.891Z,-5.30
2022-12-26T04:05:01.713Z,-5.30
2022-12-26T04:07:57.693Z,-5.30
2022-12-26T04:10:50.584Z,-5.30
2022-12-26T04:13:41.404Z,-5.30
2022-12-26T04:16:49.159Z,-5.30
2022-12-26T04:19:34.877Z,-5.40
2022-12-26T04:22:26.465Z,-5.40
2022-12-26T04:25:20.991Z,-5.40
2022-12-26T04:28:28.136Z,-5.50
2022-12-26T04:31:21.991Z,-5.60
2022-12-26T04:34:12.374Z,-5.70
2022-12-26T04:37:06.401Z,-5.80
2022-12-26T04:39:55.525Z,-5.90
2022-12-26T04:42:45.560Z,-5.90
2022-12-26T04:45:17.321Z,-6.00
2022-12-26T04:48:02.398Z,-6.00
2022-12-26T04:50:32.506Z,-6.00
2022-12-26T04:53:02.601Z,-6.10
2022-12-26T04:55:36.441Z,-6.20
2022-12-26T04:58:06.726Z,-6.20
2022-12-26T05:00:36.869Z,-6.20
2022-12-26T05:03:25.879Z,-6.30
2022-12-26T05:06:09.250Z,-6.40
2022-12-26T05:08:58.678Z,-6.40
2022-12-26T05:11:29.514Z,-6.40
2022-12-26T05:14:00.654Z,-6.50
2022-12-26T05:16:48.383Z,-6.60
2022-12-26T05:19:46.308Z,-6.60
2022-12-26T05:22:32.799Z,-6.70
2022-12-26T05:25:19.965Z,-6.90
2022-12-26T05:28:18.585Z,-7.00
2022-12-26T05:30:48.685Z,-7.00
2022-12-26T05:33:35.828Z,-7.00
2022-12-26T05:36:08.249Z,-7.10
2022-12-26T05:38:38.584Z,-7.10
2022-12-26T05:41:09.204Z,-7.10
2022-12-26T05:43:40.826Z,-7.10
2022-12-26T05:46:11.088Z,-7.10
2022-12-26T05:48:41.164Z,-7.20
2022-12-26T05:51:12.985Z,-7.10
2022-12-26T05:53:43.020Z,-7.10
2022-12-26T05:56:16.053Z,-7.10
2022-12-26T05:58:46.707Z,-7.20
2022-12-26T06:01:18.527Z,-7.20
2022-12-26T06:03:50.858Z,-7.20
2022-12-26T06:06:23.120Z,-7.20
2022-12-26T06:08:54.129Z,-7.20
2022-12-26T06:11:26.620Z,-7.20
2022-12-26T06:13:57.542Z,-7.20
2022-12-26T06:16:27.719Z,-7.20
2022-12-26T06:18:58.565Z,-7.20
2022-12-26T06:21:30.381Z,-7.30
2022-12-26T06:24:00.447Z,-7.30
2022-12-26T06:26:30.886Z,-7.40
2022-12-26T06:29:01.103Z,-7.40
2022-12-26T06:31:31.301Z,-7.40
2022-12-26T06:34:02.896Z,-7.40
2022-12-26T06:36:35.431Z,-7.40
2022-12-26T06:39:06.131Z,-7.40
2022-12-26T06:41:36.284Z,-7.40
2022-12-26T06:44:06.528Z,-7.40
2022-12-26T06:46:36.643Z,-7.40
2022-12-26T06:49:08.685Z,-7.40
2022-12-26T06:51:40.752Z,-7.40
2022-12-26T06:54:11.682Z,-7.40
2022-12-26T06:56:41.874Z,-7.40
2022-12-26T06:59:14.380Z,-7.40
2022-12-26T07:01:44.639Z,-7.40
2022-12-26T07:04:15.830Z,-7.40
2022-12-26T07:06:47.627Z,-7.40
2022-12-26T07:09:19.783Z,-7.40
2022-12-26T07:11:52.033Z,-7.40
2022-12-26T07:14:22.143Z,-7.40
2022-12-26T07:16:52.361Z,-7.40
2022-12-26T07:19:22.835Z,-7.40
2022-12-26T07:21:54.707Z,-7.40
2022-12-26T07:24:25.891Z,-7.40
2022-12-26T07:26:56.031Z,-7.40
2022-12-26T07:29:26.293Z,-7.40
2022-12-26T07:31:56.883Z,-7.40
2022-12-26T07:34:31.347Z,-7.40
2022-12-26T07:37:04.078Z,-7.40
2022-12-26T07:40:04.792Z,-7.40
2022-12-26T07:42:34.836Z,-7.40
2022-12-26T07:45:04.840Z,-7.40
2022-12-26T07:47:34.980Z,-7.40
2022-12-26T07:50:05.135Z,-7.40
2022-12-26T07:52:37.175Z,-7.40
2022-12-26T07:55:07.777Z,-7.40
2022-12-26T07:57:48.534Z,-7.40
2022-12-26T08:00:19.848Z,-7.40
2022-12-26T08:02:51.605Z,-7.40
2022-12-26T08:05:22.619Z,-7.40
2022-12-26T08:07:54.811Z,-7.40
2022-12-26T08:10:25.109Z,-7.40
2022-12-26T08:12:55.368Z,-7.50
2022-12-26T08:15:25.487Z,-7.40
2022-12-26T08:17:55.534Z,-7.40
2022-12-26T08:20:26.499Z,-7.50
2022-12-26T08:25:28.546Z,-7.40
2022-12-26T08:27:58.922Z,-7.50
2022-12-26T08:30:29.117Z,-7.50
2022-12-26T08:32:59.200Z,-7.50
2022-12-26T08:35:30.834Z,-7.50
2022-12-26T08:38:03.628Z,-7.50
2022-12-26T08:40:43.031Z,-7.50
2022-12-26T08:46:05.801Z,-7.50
2022-12-26T08:48:36.963Z,-7.50
2022-12-26T08:51:09.650Z,-7.50
2022-12-26T08:53:41.486Z,-7.50
2022-12-26T08:56:15.693Z,-7.40
2022-12-26T08:58:46.809Z,-7.40
2022-12-26T09:01:18.881Z,-7.40
2022-12-26T09:03:49.452Z,-7.40
2022-12-26T09:06:19.469Z,-7.40
2022-12-26T09:08:51.649Z,-7.40
2022-12-26T09:11:23.935Z,-7.40
2022-12-26T09:13:54.127Z,-7.50
2022-12-26T09:16:26.098Z,-7.50
2022-12-26T09:18:58.586Z,-7.40
2022-12-26T09:21:29.343Z,-7.40
2022-12-26T09:24:02.466Z,-7.40
2022-12-26T09:26:32.633Z,-7.40
2022-12-26T09:29:03.188Z,-7.40
2022-12-26T09:31:35.026Z,-7.40
2022-12-26T09:34:06.296Z,-7.40
2022-12-26T09:36:39.803Z,-7.40
2022-12-26T09:39:13.669Z,-7.40
2022-12-26T09:42:02.477Z,-7.50
2022-12-26T09:44:44.404Z,-7.40
2022-12-26T09:47:24.425Z,-7.50
2022-12-26T09:49:58.869Z,-7.60
2022-12-26T09:52:41.348Z,-7.60
2022-12-26T09:55:30.819Z,-7.70
2022-12-26T09:58:11.876Z,-7.90
2022-12-26T10:00:48.289Z,-8.00
2022-12-26T10:03:18.317Z,-8.00
2022-12-26T10:06:07.716Z,-8.00
2022-12-26T10:08:56.430Z,-8.00
2022-12-26T10:11:40.687Z,-8.00
2022-12-26T10:14:21.663Z,-8.00
2022-12-26T10:16:57.803Z,-8.00
2022-12-26T10:19:44.226Z,-8.00
2022-12-26T10:22:39.990Z,-8.00
2022-12-26T10:25:20.208Z,-8.00
2022-12-26T10:27:53.689Z,-8.00
2022-12-26T10:30:26.542Z,-8.00
2022-12-26T10:33:00.313Z,-8.00
2022-12-26T10:35:34.581Z,-8.00
2022-12-26T10:38:13.022Z,-8.10
2022-12-26T10:40:45.676Z,-8.10
2022-12-26T10:43:29.306Z,-8.10
2022-12-26T10:46:31.764Z,-8.20
2022-12-26T10:49:02.526Z,-8.20
2022-12-26T10:51:33.438Z,-8.10
2022-12-26T10:54:03.547Z,-8.00
2022-12-26T10:56:34.473Z,-8.00
2022-12-26T10:59:07.515Z,-7.90
2022-12-26T11:01:39.847Z,-7.90
2022-12-26T11:04:31.300Z,-7.90
2022-12-26T11:07:14.421Z,-7.80
2022-12-26T11:09:46.718Z,-7.80
2022-12-26T11:12:25.471Z,-7.80
2022-12-26T11:15:04.087Z,-7.80
2022-12-26T11:17:36.253Z,-7.80
2022-12-26T11:20:24.502Z,-7.90
2022-12-26T11:22:55.576Z,-7.90
2022-12-26T11:25:28.465Z,-7.80
2022-12-26T11:28:00.763Z,-7.80
2022-12-26T11:30:34.870Z,-7.80
2022-12-26T11:33:24.273Z,-7.80
2022-12-26T11:36:06.529Z,-7.70
2022-12-26T11:38:45.642Z,-7.70
2022-12-26T11:41:37.078Z,-7.70
2022-12-26T11:44:19.884Z,-7.70
2022-12-26T11:46:56.984Z,-7.60
2022-12-26T11:49:32.030Z,-7.70
2022-12-26T11:52:03.892Z,-7.60
2022-12-26T11:54:37.234Z,-7.70
2022-12-26T11:57:21.183Z,-7.70
2022-12-26T11:59:53.111Z,-7.70
2022-12-26T12:02:29.335Z,-7.70
2022-12-26T12:05:03.809Z,-7.80
2022-12-26T12:08:00.412Z,-7.80
2022-12-26T12:10:53.433Z,-7.80
2022-12-26T12:13:53.220Z,-7.80
2022-12-26T12:16:41.029Z,-7.90
2022-12-26T12:19:27.321Z,-7.90
2022-12-26T12:22:19.219Z,-7.90
2022-12-26T12:25:09.777Z,-7.90
2022-12-26T12:27:48.102Z,-7.90
2022-12-26T12:30:22.015Z,-8.00
2022-12-26T12:33:15.568Z,-8.00
2022-12-26T12:35:57.311Z,-8.00
2022-12-26T12:38:33.117Z,-8.00
2022-12-26T12:41:34.783Z,-8.10
2022-12-26T12:44:09.071Z,-8.20
2022-12-26T12:46:50.000Z,-8.20
2022-12-26T12:49:33.255Z,-8.30
2022-12-26T12:52:14.518Z,-8.20
2022-12-26T12:55:13.569Z,-8.30
2022-12-26T12:57:48.848Z,-8.20
2022-12-26T13:00:22.280Z,-8.20
2022-12-26T13:02:58.174Z,-8.20
2022-12-26T13:05:44.668Z,-8.10
2022-12-26T13:08:23.483Z,-8.00
2022-12-26T13:10:58.177Z,-8.00
2022-12-26T13:13:33.337Z,-8.00
2022-12-26T13:16:09.417Z,-7.90
2022-12-26T13:18:43.721Z,-7.90
2022-12-26T13:21:16.249Z,-7.90
2022-12-26T13:24:08.610Z,-7.80
2022-12-26T13:26:41.083Z,-7.80
2022-12-26T13:29:15.875Z,-7.80
2022-12-26T13:31:46.706Z,-7.70
2022-12-26T13:34:19.699Z,-7.60
2022-12-26T13:36:51.238Z,-7.60
2022-12-26T13:39:39.202Z,-7.50
2022-12-26T13:42:47.322Z,-7.40
2022-12-26T13:45:58.086Z,-7.30
2022-12-26T13:49:04.454Z,-7.20
2022-12-26T13:52:16.036Z,-7.30
2022-12-26T13:55:21.367Z,-7.30
2022-12-26T13:58:19.466Z,-7.30
2022-12-26T14:00:52.170Z,-7.30
2022-12-26T14:03:46.845Z,-7.10
2022-12-26T14:06:53.018Z,-7.10
2022-12-26T14:09:36.815Z,-7.10
2022-12-26T14:12:28.867Z,-7.00
2022-12-26T14:15:26.083Z,-6.80
2022-12-26T14:18:10.751Z,-6.70
2022-12-26T14:20:47.113Z,-6.70
2022-12-26T14:23:30.021Z,-6.70
2022-12-26T14:26:06.155Z,-6.60
2022-12-26T14:28:59.373Z,-6.60
2022-12-26T14:31:39.801Z,-6.50
2022-12-26T14:34:23.732Z,-6.40
2022-12-26T14:37:00.030Z,-6.10
2022-12-26T14:39:38.049Z,-6.00
2022-12-26T14:42:41.038Z,-6.00
2022-12-26T14:45:31.200Z,-5.80
2022-12-26T14:48:03.227Z,-5.60
2022-12-26T14:50:46.494Z,-5.50
2022-12-26T14:53:35.494Z,-5.40
2022-12-26T14:56:26.814Z,-5.40
2022-12-26T14:59:17.924Z,-5.40
2022-12-26T15:02:02.382Z,-5.30
2022-12-26T15:05:07.556Z,-5.20
2022-12-26T15:08:11.199Z,-5.30
2022-12-26T15:11:26.394Z,-5.20
2022-12-26T15:14:28.323Z,-5.10
2022-12-26T15:17:08.041Z,-4.80
2022-12-26T15:20:22.903Z,-4.70
2022-12-26T15:23:38.486Z,-4.70
2022-12-26T15:26:46.602Z,-4.50
2022-12-26T15:29:49.166Z,-4.70
2022-12-26T15:32:25.842Z,-4.80
2022-12-26T15:35:15.725Z,-4.70
2022-12-26T15:38:28.425Z,-4.60
2022-12-26T15:41:06.972Z,-4.70
2022-12-26T15:43:52.037Z,-4.40
2022-12-26T15:46:26.366Z,-4.40
2022-12-26T15:49:09.282Z,-4.60
2022-12-26T15:51:55.863Z,-4.50
2022-12-26T15:54:55.849Z,-4.60
2022-12-26T15:57:34.372Z,-4.50
2022-12-26T16:00:14.428Z,-4.60
2022-12-26T16:02:49.752Z,-4.50
2022-12-26T16:05:42.852Z,-4.40
2022-12-26T16:08:43.184Z,-4.20
2022-12-26T16:11:26.616Z,-4.00
2022-12-26T16:14:02.943Z,-3.90
2022-12-26T16:16:36.330Z,-3.70
2022-12-26T16:19:20.407Z,-3.70
2022-12-26T16:22:13.172Z,-3.80
2022-12-26T16:24:45.653Z,-3.90
2022-12-26T16:27:21.344Z,-3.60
2022-12-26T16:29:55.150Z,-3.30
2022-12-26T16:32:31.085Z,-3.10
2022-12-26T16:35:01.914Z,-3.00
2022-12-26T16:37:32.862Z,-3.00
2022-12-26T16:40:26.409Z,-2.90
2022-12-26T16:43:04.063Z,-2.90
2022-12-26T16:45:36.524Z,-2.90
2022-12-26T16:48:09.769Z,-2.90
2022-12-26T16:50:48.667Z,-2.90
2022-12-26T16:53:20.349Z,-3.00
2022-12-26T16:55:52.205Z,-2.90
2022-12-26T16:58:29.579Z,-3.00
2022-12-26T17:01:11.884Z,-3.20
2022-12-26T17:03:49.825Z,-3.60
2022-12-26T17:06:28.264Z,-3.80
2022-12-26T17:09:00.032Z,-3.90
2022-12-26T17:11:32.837Z,-3.90
2022-12-26T17:14:06.224Z,-3.90
2022-12-26T17:16:37.144Z,-3.80
2022-12-26T17:19:19.445Z,-3.70
2022-12-26T17:22:22.072Z,-3.50
2022-12-26T17:24:52.948Z,-3.10
2022-12-26T17:27:25.634Z,-2.70
2022-12-26T17:29:59.525Z,-2.60
2022-12-26T17:32:38.082Z,-2.40
2022-12-26T17:35:14.463Z,-2.40
2022-12-26T17:37:45.065Z,-2.40
2022-12-26T17:40:29.824Z,-2.30
2022-12-26T17:43:08.713Z,-2.30
2022-12-26T17:45:46.372Z,-2.50
2022-12-26T17:48:16.994Z,-2.40
2022-12-26T17:50:49.225Z,-2.60
2022-12-26T17:53:30.381Z,-2.50
2022-12-26T17:56:02.314Z,-2.40
2022-12-26T17:58:32.844Z,-2.60
2022-12-26T18:01:21.690Z,-2.70
2022-12-26T18:03:52.694Z,-2.80
2022-12-26T18:06:24.875Z,-2.80
2022-12-26T18:08:55.073Z,-2.60
2022-12-26T18:11:25.130Z,-2.50
2022-12-26T18:13:55.228Z,-2.50
2022-12-26T18:16:30.127Z,-2.40
2022-12-26T18:19:00.374Z,-2.50
2022-12-26T18:21:31.419Z,-2.40
2022-12-26T18:24:01.654Z,-2.30
2022-12-26T18:26:33.261Z,-2.30
2022-12-26T18:29:03.421Z,-2.30
2022-12-26T18:31:36.364Z,-2.30
2022-12-26T18:34:07.394Z,-2.30
2022-12-26T18:36:41.977Z,-2.50
2022-12-26T18:39:16.880Z,-2.60
2022-12-26T18:41:47.196Z,-2.60
2022-12-26T18:44:19.834Z,-2.60
2022-12-26T18:46:52.541Z,-2.60
2022-12-26T18:49:22.608Z,-2.70
2022-12-26T18:51:52.724Z,-2.60
2022-12-26T18:54:23.257Z,-2.70
2022-12-26T18:56:53.295Z,-2.80
2022-12-26T18:59:23.524Z,-2.70
2022-12-26T19:01:55.335Z,-2.70
2022-12-26T19:04:25.606Z,-2.60
2022-12-26T19:06:55.797Z,-2.50
2022-12-26T19:09:25.940Z,-2.50
2022-12-26T19:11:55.987Z,-2.50
2022-12-26T19:19:50.688Z,-2.50
2022-12-26T19:22:27.856Z,-2.50
2022-12-26T19:25:09.544Z,-2.50
2022-12-26T19:27:39.733Z,-2.50
2022-12-26T19:30:11.224Z,-2.50
2022-12-26T19:32:41.367Z,-2.40
2022-12-26T19:35:14.496Z,-2.50
2022-12-26T19:37:44.957Z,-2.50
2022-12-26T19:40:21.276Z,-2.50
2022-12-26T19:42:54.775Z,-2.50
2022-12-26T19:45:25.057Z,-2.50
2022-12-26T19:47:55.179Z,-2.50
2022-12-26T19:50:27.259Z,-2.40
2022-12-26T19:52:58.428Z,-2.50
2022-12-26T19:55:28.511Z,-2.60
2022-12-26T19:57:58.774Z,-2.70
2022-12-26T20:00:29.038Z,-2.70
2022-12-26T20:03:00.539Z,-2.80
2022-12-26T20:05:32.280Z,-2.80
2022-12-26T20:08:02.340Z,-2.80
2022-12-26T20:10:32.465Z,-2.80
2022-12-26T20:13:02.564Z,-2.90
2022-12-26T20:15:34.628Z,-2.90
2022-12-26T20:18:04.904Z,-2.90
2022-12-26T20:20:37.282Z,-2.90
2022-12-26T20:23:07.295Z,-3.00
2022-12-26T20:25:40.632Z,-3.00
2022-12-26T20:28:10.675Z,-3.10
2022-12-26T20:30:40.897Z,-3.10
2022-12-26T20:33:10.948Z,-3.20
2022-12-26T20:35:42.676Z,-3.20
2022-12-26T20:38:12.927Z,-3.20
2022-12-26T20:40:49.921Z,-3.30
2022-12-26T20:43:20.283Z,-3.40
2022-12-26T20:45:50.392Z,-3.40
2022-12-26T20:48:20.473Z,-3.50
2022-12-26T20:50:59.871Z,-3.50
2022-12-26T20:53:30.685Z,-3.60
2022-12-26T20:56:00.915Z,-3.70
2022-12-26T20:58:33.826Z,-3.70
2022-12-26T21:01:07.077Z,-3.80
2022-12-26T21:03:37.951Z,-3.90
2022-12-26T21:06:12.165Z,-3.90
2022-12-26T21:08:43.633Z,-3.80
2022-12-26T21:11:15.346Z,-3.80
2022-12-26T21:13:46.507Z,-3.80
2022-12-26T21:16:19.120Z,-3.70
2022-12-26T21:18:50.023Z,-3.60
2022-12-26T21:21:23.932Z,-3.60
2022-12-26T21:23:58.342Z,-3.70
2022-12-26T21:26:28.774Z,-3.70
2022-12-26T21:29:00.543Z,-3.80
2022-12-26T21:31:31.443Z,-3.90
2022-12-26T21:34:03.546Z,-3.90
2022-12-26T21:36:36.052Z,-4.00
2022-12-26T21:39:09.468Z,-4.10
2022-12-26T21:41:40.159Z,-4.10
2022-12-26T21:44:10.235Z,-4.20
2022-12-26T21:46:40.328Z,-4.10
2022-12-26T21:49:11.462Z,-4.10
2022-12-26T21:51:43.333Z,-4.10
2022-12-26T21:54:30.613Z,-4.10
2022-12-26T21:57:04.850Z,-4.00
2022-12-26T21:59:51.761Z,-4.00
2022-12-26T22:02:39.047Z,-4.00
2022-12-26T22:05:09.986Z,-4.00
2022-12-26T22:07:42.176Z,-4.00
2022-12-26T22:10:35.214Z,-4.00
2022-12-26T22:13:04.992Z,-4.00
2022-12-26T22:15:51.963Z,-4.10
2022-12-26T22:18:22.907Z,-4.00
2022-12-26T22:20:52.966Z,-4.10
2022-12-26T22:23:24.662Z,-4.10
2022-12-26T22:25:58.253Z,-4.10
2022-12-26T22:28:30.254Z,-4.00
2022-12-26T22:31:01.505Z,-4.10
2022-12-26T22:33:33.308Z,-4.10
2022-12-26T22:36:12.262Z,-4.10
2022-12-26T22:38:50.254Z,-4.10
2022-12-26T22:41:22.587Z,-4.20
2022-12-26T22:43:53.166Z,-4.20
2022-12-26T22:46:23.379Z,-4.20
2022-12-26T22:48:53.947Z,-4.30
2022-12-26T22:51:25.813Z,-4.30
2022-12-26T22:53:59.482Z,-4.40
2022-12-26T22:56:31.570Z,-4.40
2022-12-26T22:59:03.915Z,-4.40
2022-12-26T23:01:37.642Z,-4.50
2022-12-26T23:04:09.466Z,-4.50
2022-12-26T23:06:41.685Z,-4.50
2022-12-26T23:09:18.069Z,-4.60
2022-12-26T23:12:13.296Z,-4.60
2022-12-26T23:14:45.487Z,-4.50
2022-12-26T23:17:39.248Z,-4.60
2022-12-26T23:20:40.690Z,-4.60
2022-12-26T23:23:15.229Z,-4.50
2022-12-26T23:25:48.499Z,-4.50
2022-12-26T23:28:37.151Z,-4.50
2022-12-26T23:31:08.569Z,-4.50
2022-12-26T23:33:39.141Z,-4.50
2022-12-26T23:36:10.061Z,-4.50
2022-12-26T23:38:40.389Z,-4.50
2022-12-26T23:41:12.165Z,-4.50
2022-12-26T23:43:42.514Z,-4.60
2022-12-26T23:46:13.068Z,-4.60
2022-12-26T23:48:43.199Z,-4.70
2022-12-26T23:51:13.233Z,-4.80
2022-12-26T23:53:43.364Z,-4.80
2022-12-26T23:56:15.006Z,-5.00
2022-12-26T23:58:45.255Z,-5.10
